Time,TemperatureF,DewpointF,PressureIn,WindDirection,WindDirectionDegrees,WindSpeedMPH,WindSpeedGustMPH,Humidity,HourlyPrecipIn,Conditions,Clouds,dailyrainin,SoftwareType,DateUTC
2013-03-24 00:02:00,34.0,8.0,-100.00,NNW,329,4.0,7.0,33,-99.99,,,-99.99,,2013-03-24 07:02:00,
2013-03-24 00:12:00,34.0,8.0,-100.00,NNW,329,4.0,7.0,33,-99.99,,,-99.99,,2013-03-24 07:12:00,
2013-03-24 00:22:00,34.0,8.0,-100.00,NNW,329,4.0,7.0,33,-99.99,,,-99.99,,2013-03-24 07:22:00,
2013-03-24 00:32:00,34.0,12.0,-100.00,NE,41,4.0,6.0,39,-99.99,,,-99.99,,2013-03-24 07:32:00,
2013-03-24 00:42:00,34.0,11.0,-100.00,NE,41,5.0,7.0,38,-99.99,,,-99.99,,2013-03-24 07:42:00,
2013-03-24 00:52:00,34.0,11.0,-100.00,NE,38,5.0,6.0,38,-99.99,,,-99.99,,2013-03-24 07:52:00,
2013-03-24 01:02:00,34.0,11.0,-100.00,NE,38,5.0,6.0,38,-99.99,,,-99.99,,2013-03-24 08:02:00,
2013-03-24 01:12:00,33.0,11.0,-100.00,NE,40,3.0,5.0,40,-99.99,,,-99.99,,2013-03-24 08:12:00,
2013-03-24 01:22:00,33.0,11.0,-100.00,NE,40,3.0,5.0,40,-99.99,,,-99.99,,2013-03-24 08:22:00,
2013-03-24 01:32:00,33.0,12.0,-100.00,NE,52,2.0,4.0,42,-99.99,,,-99.99,,2013-03-24 08:32:00,
2013-03-24 01:42:00,31.0,12.0,-100.00,NNE,23,3.0,5.0,45,-99.99,,,-99.99,,2013-03-24 08:42:00,
2013-03-24 01:52:00,32.0,12.0,-100.00,NE,55,5.0,7.0,43,-99.99,,,-99.99,,2013-03-24 08:52:00,
2013-03-24 02:02:00,32.0,12.0,-100.00,NE,55,5.0,7.0,43,-99.99,,,-99.99,,2013-03-24 09:02:00,
2013-03-24 02:12:00,29.0,11.0,-100.00,East,86,3.0,5.0,47,-99.99,,,-99.99,,2013-03-24 09:12:00,
2013-03-24 02:22:00,26.0,11.0,-100.00,ESE,116,3.0,5.0,52,-99.99,,,-99.99,,2013-03-24 09:22:00,
2013-03-24 02:33:00,26.0,11.0,-100.00,ESE,116,3.0,5.0,52,-99.99,,,-99.99,,2013-03-24 09:33:00,
2013-03-24 02:42:00,28.0,13.0,-100.00,ESE,107,2.0,4.0,52,-99.99,,,-99.99,,2013-03-24 09:42:00,
2013-03-24 02:52:00,28.0,13.0,-100.00,ESE,107,2.0,4.0,52,-99.99,,,-99.99,,2013-03-24 09:52:00,
2013-03-24 03:02:00,29.0,14.0,-100.00,ENE,73,2.0,3.0,52,-99.99,,,-99.99,,2013-03-24 10:02:00,
2013-03-24 03:12:00,28.0,12.0,-100.00,ENE,65,1.0,3.0,51,-99.99,,,-99.99,,2013-03-24 10:12:00,
2013-03-24 03:22:00,28.0,12.0,-100.00,ENE,65,1.0,3.0,51,-99.99,,,-99.99,,2013-03-24 10:22:00,
2013-03-24 03:32:00,24.0,13.0,-100.00,South,189,1.0,3.0,63,-99.99,,,-99.99,,2013-03-24 10:32:00,
2013-03-24 03:42:00,26.0,14.0,-100.00,SSE,162,0.0,1.0,60,-99.99,,,-99.99,,2013-03-24 10:42:00,
2013-03-24 03:52:00,26.0,14.0,-100.00,SSE,162,0.0,1.0,60,-99.99,,,-99.99,,2013-03-24 10:52:00,
2013-03-24 04:02:00,25.0,14.0,-100.00,North,0,0.0,1.0,61,-99.99,,,-99.99,,2013-03-24 11:02:00,
2013-03-24 04:12:00,25.0,14.0,-100.00,North,0,0.0,1.0,61,-99.99,,,-99.99,,2013-03-24 11:12:00,
2013-03-24 04:22:00,25.0,12.0,-100.00,NE,35,1.0,3.0,57,-99.99,,,-99.99,,2013-03-24 11:22:00,
2013-03-24 04:32:00,25.0,12.0,-100.00,NE,35,1.0,3.0,57,-99.99,,,-99.99,,2013-03-24 11:32:00,
2013-03-24 04:42:00,26.0,12.0,-100.00,NE,38,0.0,1.0,55,-99.99,,,-99.99,,2013-03-24 11:42:00,
2013-03-24 04:52:00,26.0,12.0,-100.00,NE,38,0.0,1.0,55,-99.99,,,-99.99,,2013-03-24 11:52:00,
2013-03-24 05:02:00,26.0,11.0,-100.00,East,83,1.0,2.0,54,-99.99,,,-99.99,,2013-03-24 12:02:00,
2013-03-24 05:12:00,20.0,11.0,-100.00,SE,128,2.0,4.0,66,-99.99,,,-99.99,,2013-03-24 12:12:00,
2013-03-24 05:22:00,20.0,11.0,-100.00,SE,128,2.0,4.0,66,-99.99,,,-99.99,,2013-03-24 12:22:00,
2013-03-24 05:32:00,24.0,17.0,-100.00,SSE,157,3.0,4.0,75,-99.99,,,-99.99,,2013-03-24 12:32:00,
2013-03-24 05:42:00,24.0,16.0,-100.00,SSE,155,2.0,4.0,71,-99.99,,,-99.99,,2013-03-24 12:42:00,
2013-03-24 05:52:00,24.0,15.0,-100.00,East,97,2.0,3.0,68,-99.99,,,-99.99,,2013-03-24 12:52:00,
2013-03-24 06:02:00,23.0,13.0,-100.00,East,92,2.0,4.0,65,-99.99,,,-99.99,,2013-03-24 13:02:00,
2013-03-24 06:12:00,24.0,16.0,-100.00,SE,134,4.0,5.0,70,-99.99,,,-99.99,,2013-03-24 13:12:00,
2013-03-24 06:22:00,24.0,16.0,-100.00,SE,133,3.0,5.0,70,-99.99,,,-99.99,,2013-03-24 13:22:00,
2013-03-24 06:32:00,24.0,16.0,-100.00,SE,133,3.0,5.0,70,-99.99,,,-99.99,,2013-03-24 13:32:00,
2013-03-24 06:42:00,23.0,15.0,-100.00,ESE,106,3.0,5.0,70,-99.99,,,-99.99,,2013-03-24 13:42:00,
2013-03-24 06:52:00,23.0,15.0,-100.00,ESE,106,3.0,5.0,70,-99.99,,,-99.99,,2013-03-24 13:52:00,
2013-03-24 07:02:00,24.0,14.0,-100.00,ENE,58,3.0,5.0,66,-99.99,,,-99.99,,2013-03-24 14:02:00,
2013-03-24 07:12:00,21.0,13.0,-100.00,North,0,0.0,2.0,71,-99.99,,,-99.99,,2013-03-24 14:12:00,
2013-03-24 07:22:00,19.0,15.0,-100.00,SSW,193,0.0,3.0,82,-99.99,,,-99.99,,2013-03-24 14:22:00,
2013-03-24 07:32:00,19.0,15.0,-100.00,SSW,193,0.0,3.0,82,-99.99,,,-99.99,,2013-03-24 14:32:00,
2013-03-24 07:42:00,19.0,14.0,-100.00,NE,34,0.0,2.0,81,-99.99,,,-99.99,,2013-03-24 14:42:00,
2013-03-24 07:52:00,19.0,11.0,-100.00,SSW,193,0.0,2.0,72,-99.99,,,-99.99,,2013-03-24 14:52:00,
2013-03-24 08:02:00,21.0,12.0,-100.00,ESE,102,1.0,3.0,67,-99.99,,,-99.99,,2013-03-24 15:02:00,
2013-03-24 08:12:00,21.0,12.0,-100.00,ESE,102,1.0,3.0,67,-99.99,,,-99.99,,2013-03-24 15:12:00,
2013-03-24 08:22:00,23.0,13.0,-100.00,SE,127,2.0,4.0,66,-99.99,,,-99.99,,2013-03-24 15:22:00,
2013-03-24 08:33:00,23.0,13.0,-100.00,SE,127,2.0,4.0,66,-99.99,,,-99.99,,2013-03-24 15:33:00,
2013-03-24 08:43:00,27.0,16.0,-100.00,ESE,102,0.0,2.0,62,-99.99,,,-99.99,,2013-03-24 15:43:00,
2013-03-24 08:53:00,31.0,16.0,-100.00,NNE,24,0.0,3.0,54,-99.99,,,-99.99,,2013-03-24 15:53:00,
2013-03-24 09:02:00,31.0,17.0,-100.00,NE,41,0.0,2.0,55,-99.99,,,-99.99,,2013-03-24 16:02:00,
2013-03-24 09:12:00,31.0,17.0,-100.00,NE,41,0.0,2.0,55,-99.99,,,-99.99,,2013-03-24 16:12:00,
2013-03-24 09:22:00,34.0,19.0,-100.00,WSW,251,0.0,2.0,54,-99.99,,,-99.99,,2013-03-24 16:22:00,
2013-03-24 09:33:00,36.0,19.0,-100.00,SSW,212,0.0,3.0,50,-99.99,,,-99.99,,2013-03-24 16:33:00,
2013-03-24 09:42:00,39.0,17.0,-100.00,NE,45,0.0,2.0,41,-99.99,,,-99.99,,2013-03-24 16:42:00,
2013-03-24 09:52:00,39.0,17.0,-100.00,NE,45,0.0,2.0,41,-99.99,,,-99.99,,2013-03-24 16:52:00,
2013-03-24 10:02:00,39.0,14.0,-100.00,SW,217,1.0,3.0,35,-99.99,,,-99.99,,2013-03-24 17:02:00,
2013-03-24 10:12:00,39.0,14.0,-100.00,SW,217,1.0,3.0,35,-99.99,,,-99.99,,2013-03-24 17:12:00,
2013-03-24 10:22:00,39.0,14.0,-100.00,SW,217,1.0,3.0,35,-99.99,,,-99.99,,2013-03-24 17:22:00,
2013-03-24 10:32:00,43.0,15.0,-100.00,South,186,2.0,5.0,32,-99.99,,,-99.99,,2013-03-24 17:32:00,
2013-03-24 10:42:00,44.0,14.0,-100.00,SSW,196,2.0,5.0,29,-99.99,,,-99.99,,2013-03-24 17:42:00,
2013-03-24 10:52:00,46.0,14.0,-100.00,South,179,1.0,4.0,27,-99.99,,,-99.99,,2013-03-24 17:52:00,
2013-03-24 11:02:00,45.0,12.0,-100.00,WSW,250,3.0,6.0,26,-99.99,,,-99.99,,2013-03-24 18:02:00,
2013-03-24 11:12:00,45.0,12.0,-100.00,WSW,250,3.0,6.0,26,-99.99,,,-99.99,,2013-03-24 18:12:00,
2013-03-24 11:22:00,46.0,13.0,-100.00,NW,312,2.0,7.0,26,-99.99,,,-99.99,,2013-03-24 18:22:00,
2013-03-24 11:32:00,47.0,13.0,-100.00,WNW,298,4.0,7.0,25,-99.99,,,-99.99,,2013-03-24 18:32:00,
2013-03-24 11:42:00,47.0,13.0,-100.00,WNW,298,4.0,7.0,25,-99.99,,,-99.99,,2013-03-24 18:42:00,
2013-03-24 11:52:00,49.0,16.0,-100.00,West,277,3.0,7.0,27,-99.99,,,-99.99,,2013-03-24 18:52:00,
2013-03-24 12:02:00,49.0,16.0,-100.00,WNW,301,4.0,8.0,26,-99.99,,,-99.99,,2013-03-24 19:02:00,
2013-03-24 12:12:00,49.0,16.0,-100.00,WNW,301,4.0,8.0,26,-99.99,,,-99.99,,2013-03-24 19:12:00,
2013-03-24 12:22:00,51.0,16.0,-100.00,NNW,332,4.0,7.0,24,-99.99,,,-99.99,,2013-03-24 19:22:00,
2013-03-24 12:32:00,53.0,17.0,-100.00,NNE,18,2.0,6.0,24,-99.99,,,-99.99,,2013-03-24 19:32:00,
2013-03-24 12:42:00,53.0,17.0,-100.00,NNE,18,2.0,6.0,24,-99.99,,,-99.99,,2013-03-24 19:42:00,
2013-03-24 12:52:00,54.0,18.0,-100.00,NW,305,2.0,6.0,24,-99.99,,,-99.99,,2013-03-24 19:52:00,
2013-03-24 13:02:00,55.0,20.0,-100.00,NNE,13,2.0,7.0,25,-99.99,,,-99.99,,2013-03-24 20:02:00,
2013-03-24 13:12:00,55.0,20.0,-100.00,NNE,13,2.0,7.0,25,-99.99,,,-99.99,,2013-03-24 20:12:00,
2013-03-24 13:22:00,55.0,20.0,-100.00,NW,319,3.0,8.0,25,-99.99,,,-99.99,,2013-03-24 20:22:00,
2013-03-24 13:32:00,55.0,20.0,-100.00,NW,319,3.0,8.0,25,-99.99,,,-99.99,,2013-03-24 20:32:00,
2013-03-24 13:42:00,59.0,21.0,-100.00,West,263,3.0,6.0,23,-99.99,,,-99.99,,2013-03-24 20:42:00,
2013-03-24 13:53:00,58.0,21.0,-100.00,WSW,251,3.0,9.0,24,-99.99,,,-99.99,,2013-03-24 20:53:00,
2013-03-24 14:02:00,58.0,21.0,-100.00,WSW,251,3.0,9.0,24,-99.99,,,-99.99,,2013-03-24 21:02:00,
2013-03-24 14:11:00,59.0,20.0,-100.00,West,274,4.0,7.0,22,-99.99,,,-99.99,,2013-03-24 21:11:00,
2013-03-24 14:22:00,60.0,20.0,-100.00,NW,304,4.0,9.0,21,-99.99,,,-99.99,,2013-03-24 21:22:00,
2013-03-24 14:32:00,60.0,20.0,-100.00,NW,304,4.0,9.0,21,-99.99,,,-99.99,,2013-03-24 21:32:00,
2013-03-24 14:43:00,62.0,20.0,-100.00,NW,323,3.0,9.0,20,-99.99,,,-99.99,,2013-03-24 21:43:00,
2013-03-24 14:53:00,64.0,24.0,-100.00,West,281,3.0,8.0,22,-99.99,,,-99.99,,2013-03-24 21:53:00,
2013-03-24 15:02:00,63.0,19.0,-100.00,West,278,3.0,7.0,18,-99.99,,,-99.99,,2013-03-24 22:02:00,
2013-03-24 15:12:00,63.0,20.0,-100.00,South,189,5.0,12.0,19,-99.99,,,-99.99,,2013-03-24 22:12:00,
2013-03-24 15:22:00,64.0,23.0,-100.00,SW,226,12.0,24.0,21,-99.99,,,-99.99,,2013-03-24 22:22:00,
2013-03-24 15:33:00,63.0,20.0,-100.00,SSW,212,10.0,19.0,19,-99.99,,,-99.99,,2013-03-24 22:33:00,
2013-03-24 15:42:00,63.0,20.0,-100.00,SSW,212,10.0,19.0,19,-99.99,,,-99.99,,2013-03-24 22:42:00,
2013-03-24 15:52:00,63.0,22.0,-100.00,SW,223,14.0,27.0,21,-99.99,,,-99.99,,2013-03-24 22:52:00,
2013-03-24 16:02:00,63.0,23.0,-100.00,SW,220,14.0,27.0,22,-99.99,,,-99.99,,2013-03-24 23:02:00,
2013-03-24 16:12:00,63.0,20.0,-100.00,SW,216,13.0,24.0,19,-99.99,,,-99.99,,2013-03-24 23:12:00,
2013-03-24 16:22:00,62.0,23.0,-100.00,SW,227,14.0,24.0,22,-99.99,,,-99.99,,2013-03-24 23:22:00,
2013-03-24 16:32:00,63.0,22.0,-100.00,SW,226,13.0,24.0,21,-99.99,,,-99.99,,2013-03-24 23:32:00,
2013-03-24 16:42:00,63.0,22.0,-100.00,SW,226,13.0,24.0,21,-99.99,,,-99.99,,2013-03-24 23:42:00,
2013-03-24 16:52:00,62.0,19.0,-100.00,WSW,247,11.0,24.0,19,-99.99,,,-99.99,,2013-03-24 23:52:00,
2013-03-24 17:02:00,63.0,20.0,-100.00,WSW,243,13.0,24.0,19,-99.99,,,-99.99,,2013-03-25 00:02:00,
2013-03-24 17:12:00,63.0,21.0,-100.00,WSW,248,14.0,22.0,20,-99.99,,,-99.99,,2013-03-25 00:12:00,
2013-03-24 17:22:00,63.0,18.0,-100.00,WSW,240,13.0,19.0,17,-99.99,,,-99.99,,2013-03-25 00:22:00,
2013-03-24 17:32:00,63.0,18.0,-100.00,WSW,240,13.0,19.0,17,-99.99,,,-99.99,,2013-03-25 00:32:00,
2013-03-24 17:42:00,62.0,19.0,-100.00,WSW,251,9.0,15.0,19,-99.99,,,-99.99,,2013-03-25 00:42:00,
2013-03-24 17:52:00,61.0,21.0,-100.00,SW,232,10.0,16.0,21,-99.99,,,-99.99,,2013-03-25 00:52:00,
2013-03-24 18:02:00,61.0,21.0,-100.00,SW,236,10.0,16.0,21,-99.99,,,-99.99,,2013-03-25 01:02:00,
2013-03-24 18:12:00,62.0,19.0,-100.00,WSW,244,11.0,17.0,19,-99.99,,,-99.99,,2013-03-25 01:12:00,
2013-03-24 18:22:00,61.0,21.0,-100.00,WSW,254,11.0,20.0,21,-99.99,,,-99.99,,2013-03-25 01:22:00,
2013-03-24 18:32:00,61.0,21.0,-100.00,WSW,254,11.0,20.0,21,-99.99,,,-99.99,,2013-03-25 01:32:00,
2013-03-24 18:42:00,60.0,22.0,-100.00,WSW,240,12.0,19.0,23,-99.99,,,-99.99,,2013-03-25 01:42:00,
2013-03-24 18:52:00,60.0,22.0,-100.00,WSW,240,12.0,19.0,23,-99.99,,,-99.99,,2013-03-25 01:52:00,
2013-03-24 19:02:00,60.0,21.0,-100.00,SW,233,6.0,11.0,22,-99.99,,,-99.99,,2013-03-25 02:02:00,
2013-03-24 19:12:00,60.0,22.0,-100.00,SW,230,5.0,9.0,23,-99.99,,,-99.99,,2013-03-25 02:12:00,
2013-03-24 19:22:00,58.0,23.0,-100.00,SW,227,6.0,10.0,26,-99.99,,,-99.99,,2013-03-25 02:22:00,
2013-03-24 19:32:00,58.0,23.0,-100.00,SW,227,6.0,10.0,26,-99.99,,,-99.99,,2013-03-25 02:32:00,
2013-03-24 19:42:00,57.0,24.0,-100.00,WSW,240,8.0,13.0,28,-99.99,,,-99.99,,2013-03-25 02:42:00,
2013-03-24 19:52:00,57.0,24.0,-100.00,WSW,240,8.0,13.0,28,-99.99,,,-99.99,,2013-03-25 02:52:00,
2013-03-24 20:02:00,56.0,24.0,-100.00,West,260,8.0,13.0,29,-99.99,,,-99.99,,2013-03-25 03:02:00,
2013-03-24 20:12:00,56.0,24.0,-100.00,West,264,7.0,17.0,29,-99.99,,,-99.99,,2013-03-25 03:12:00,
2013-03-24 20:22:00,57.0,25.0,-100.00,West,263,8.0,17.0,29,-99.99,,,-99.99,,2013-03-25 03:22:00,
2013-03-24 20:33:00,56.0,26.0,-100.00,West,264,9.0,14.0,31,-99.99,,,-99.99,,2013-03-25 03:33:00,
2013-03-24 20:42:00,52.0,27.0,-100.00,SW,229,7.0,11.0,37,-99.99,,,-99.99,,2013-03-25 03:42:00,
2013-03-24 20:52:00,52.0,27.0,-100.00,SW,229,7.0,11.0,37,-99.99,,,-99.99,,2013-03-25 03:52:00,
2013-03-24 21:02:00,54.0,27.0,-100.00,WSW,240,12.0,16.0,35,-99.99,,,-99.99,,2013-03-25 04:02:00,
2013-03-24 21:12:00,54.0,26.0,-100.00,WSW,237,17.0,24.0,34,-99.99,,,-99.99,,2013-03-25 04:12:00,
2013-03-24 21:22:00,54.0,26.0,-100.00,WSW,237,17.0,24.0,34,-99.99,,,-99.99,,2013-03-25 04:22:00,
2013-03-24 21:32:00,54.0,26.0,-100.00,SW,233,19.0,24.0,33,-99.99,,,-99.99,,2013-03-25 04:32:00,
2013-03-24 21:42:00,54.0,29.0,-100.00,SW,233,19.0,24.0,38,-99.99,,,-99.99,,2013-03-25 04:42:00,
2013-03-24 21:52:00,54.0,22.0,-100.00,SW,232,18.0,23.0,29,-99.99,,,-99.99,,2013-03-25 04:52:00,
2013-03-24 22:02:00,56.0,14.0,-100.00,WSW,240,15.0,26.0,19,-99.99,,,-99.99,,2013-03-25 05:02:00,
2013-03-24 22:12:00,54.0,20.0,-100.00,WSW,240,11.0,17.0,26,-99.99,,,-99.99,,2013-03-25 05:12:00,
2013-03-24 22:22:00,54.0,20.0,-100.00,WSW,240,11.0,17.0,26,-99.99,,,-99.99,,2013-03-25 05:22:00,
2013-03-24 22:32:00,51.0,20.0,-100.00,WSW,254,7.0,13.0,29,-99.99,,,-99.99,,2013-03-25 05:32:00,
2013-03-24 22:42:00,51.0,19.0,-100.00,West,264,5.0,10.0,28,-99.99,,,-99.99,,2013-03-25 05:42:00,
2013-03-24 22:52:00,52.0,18.0,-100.00,SSW,209,5.0,9.0,26,-99.99,,,-99.99,,2013-03-25 05:52:00,
2013-03-24 23:02:00,50.0,21.0,-100.00,SSE,154,3.0,5.0,32,-99.99,,,-99.99,,2013-03-25 06:02:00,
2013-03-24 23:12:00,50.0,21.0,-100.00,SSE,154,3.0,5.0,32,-99.99,,,-99.99,,2013-03-25 06:12:00,
2013-03-24 23:22:00,47.0,20.0,-100.00,ESE,102,4.0,8.0,34,-99.99,,,-99.99,,2013-03-25 06:22:00,
2013-03-24 23:32:00,46.0,20.0,-100.00,ENE,59,7.0,9.0,35,-99.99,,,-99.99,,2013-03-25 06:32:00,
2013-03-24 23:42:00,46.0,20.0,-100.00,ENE,59,7.0,9.0,35,-99.99,,,-99.99,,2013-03-25 06:42:00,